Time;durP1;ratioP1;P1;durP2;ratioP2;P2;SDS_P1;SDS_P2;PMS_P1;PMS_P2;Temp;Humidity;BMP_temperature;BMP_pressure;BME280_temperature;BME280_humidity;BME280_pressure;Samples;Min_cycle;Max_cycle;Signal;HPM_P1;HPM_P2
2023/07/31 00:00:50;;;;;;;21.40;5.23;;;19.20;99.90;;;;;;7285631;19;20197;-77
2023/07/31 00:03:15;;;;;;;19.43;5.20;;;19.10;99.90;;;;;;7287040;19;20222;-77
2023/07/31 00:05:41;;;;;;;20.40;5.13;;;19.20;99.90;;;;;;7286916;19;20652;-78
2023/07/31 00:08:07;;;;;;;18.37;5.67;;;19.30;99.90;;;;;;7287485;19;20192;-77
2023/07/31 00:10:33;;;;;;;19.17;5.10;;;19.30;99.90;;;;;;7308260;19;20652;-77
2023/07/31 00:12:59;;;;;;;14.97;5.13;;;19.40;99.90;;;;;;7287537;19;20177;-77
2023/07/31 00:15:25;;;;;;;15.23;4.97;;;19.50;99.90;;;;;;7286758;19;21676;-77
2023/07/31 00:17:50;;;;;;;16.33;4.90;;;19.40;99.90;;;;;;7286897;19;20190;-77
2023/07/31 00:20:16;;;;;;;21.87;5.63;;;19.40;99.90;;;;;;7286568;19;20179;-77
2023/07/31 00:22:42;;;;;;;17.57;4.80;;;19.30;99.90;;;;;;7286857;19;20591;-77
2023/07/31 00:25:07;;;;;;;14.70;5.23;;;19.40;99.90;;;;;;7286336;19;20260;-77
2023/07/31 00:27:33;;;;;;;17.07;4.40;;;19.40;99.90;;;;;;7303083;19;20180;-76
2023/07/31 00:29:59;;;;;;;15.40;4.73;;;19.40;99.90;;;;;;7299810;19;20305;-77
2023/07/31 00:32:25;;;;;;;14.77;4.67;;;19.30;99.90;;;;;;7285237;19;20187;-77
2023/07/31 00:34:51;;;;;;;18.97;4.60;;;19.30;99.90;;;;;;7285082;19;20189;-78
2023/07/31 00:37:16;;;;;;;15.40;5.07;;;19.30;99.90;;;;;;7284952;19;20188;-77
2023/07/31 00:39:42;;;;;;;14.20;5.23;;;19.20;99.90;;;;;;7285703;19;20661;-77
2023/07/31 00:42:08;;;;;;;17.60;5.00;;;19.30;99.90;;;;;;7283809;19;20513;-77
2023/07/31 00:44:33;;;;;;;15.30;4.83;;;19.40;99.90;;;;;;7299167;19;20211;-77
2023/07/31 00:47:00;;;;;;;17.57;5.17;;;19.40;99.90;;;;;;7301464;19;20177;-77
2023/07/31 00:49:26;;;;;;;18.27;4.97;;;19.40;99.90;;;;;;7286020;19;20195;-77
2023/07/31 00:51:53;;;;;;;15.63;4.97;;;19.30;99.90;;;;;;7284046;19;20665;-77
2023/07/31 00:54:19;;;;;;;14.00;4.87;;;19.30;99.90;;;;;;7285419;19;20649;-77
2023/07/31 00:56:48;;;;;;;18.90;5.13;;;19.30;99.90;;;;;;7284331;19;20184;-77
2023/07/31 00:59:14;;;;;;;17.70;5.07;;;19.20;99.90;;;;;;7286026;19;20218;-77
2023/07/31 01:01:40;;;;;;;18.00;5.37;;;19.20;99.90;;;;;;7283980;19;20633;-76
2023/07/31 01:04:06;;;;;;;22.63;5.40;;;19.20;99.90;;;;;;7282479;19;20218;-77
2023/07/31 01:07:00;;;;;;;19.20;6.00;;;19.30;99.90;;;;;;7305689;19;20185;-77
2023/07/31 01:09:47;;;;;;;17.37;5.33;;;19.20;99.90;;;;;;7181375;19;2004630;-77
2023/07/31 01:12:15;;;;;;;19.17;5.17;;;19.20;99.90;;;;;;7182732;19;2004565;-77
2023/07/31 01:14:50;;;;;;;16.27;5.27;;;19.20;99.90;;;;;;7283335;19;20185;-77
2023/07/31 01:17:16;;;;;;;18.93;5.10;;;19.20;99.90;;;;;;7282938;19;20189;-77
2023/07/31 01:19:44;;;;;;;15.57;5.30;;;19.10;99.90;;;;;;7284259;19;20237;-77
2023/07/31 01:22:22;;;;;;;16.43;5.33;;;19.20;99.90;;;;;;7283127;19;20674;-77
2023/07/31 01:24:47;;;;;;;16.10;6.23;;;19.10;99.90;;;;;;7283505;19;21138;-77
2023/07/31 01:27:21;;;;;;;17.20;5.83;;;19.10;99.90;;;;;;7284241;19;20340;-77
2023/07/31 01:30:00;;;;;;;17.83;5.27;;;19.10;99.90;;;;;;7283218;19;20181;-77
2023/07/31 01:32:28;;;;;;;19.87;5.40;;;19.10;99.90;;;;;;7284709;19;20229;-77
2023/07/31 01:34:56;;;;;;;16.30;5.67;;;19.00;99.90;;;;;;7282313;19;20198;-77
2023/07/31 01:37:28;;;;;;;16.13;5.20;;;19.10;99.90;;;;;;7284553;19;20197;-77
2023/07/31 01:39:54;;;;;;;15.13;5.40;;;19.10;99.90;;;;;;7285138;19;20278;-77
2023/07/31 01:42:20;;;;;;;17.47;5.77;;;19.10;99.90;;;;;;7282169;19;20193;-77
2023/07/31 01:44:45;;;;;;;16.90;5.73;;;19.10;99.90;;;;;;7283302;19;20196;-77
2023/07/31 01:47:11;;;;;;;13.17;5.40;;;19.10;99.90;;;;;;7283210;19;20677;-77
2023/07/31 01:49:37;;;;;;;15.53;5.43;;;19.10;99.90;;;;;;7282295;19;20606;-77
2023/07/31 01:52:03;;;;;;;13.63;5.50;;;19.20;99.90;;;;;;7305979;19;20193;-77
2023/07/31 01:54:28;;;;;;;17.53;5.23;;;19.20;99.90;;;;;;7283710;19;20188;-77
2023/07/31 01:56:54;;;;;;;17.30;5.60;;;19.20;99.90;;;;;;7280265;19;20630;-78
2023/07/31 01:59:20;;;;;;;17.90;5.50;;;19.10;99.90;;;;;;7284264;19;20832;-77
2023/07/31 02:01:45;;;;;;;15.23;5.87;;;19.10;99.90;;;;;;7281951;19;21009;-77
2023/07/31 02:04:11;;;;;;;15.23;5.40;;;19.10;99.90;;;;;;7282709;19;20219;-77
2023/07/31 02:06:39;;;;;;;12.87;5.27;;;19.10;99.90;;;;;;7282511;19;20201;-76
2023/07/31 02:09:05;;;;;;;16.33;5.93;;;19.10;99.90;;;;;;7281903;19;20191;-77
2023/07/31 02:11:31;;;;;;;11.67;5.10;;;19.20;99.90;;;;;;7304947;19;20773;-77
2023/07/31 02:13:57;;;;;;;15.60;5.27;;;19.10;99.90;;;;;;7284582;19;20191;-77
2023/07/31 02:16:22;;;;;;;14.80;4.70;;;19.10;99.90;;;;;;7280247;19;20190;-77
2023/07/31 02:18:48;;;;;;;11.60;4.67;;;19.00;99.90;;;;;;7283304;19;20202;-78
2023/07/31 02:21:14;;;;;;;12.27;4.90;;;19.10;99.90;;;;;;7283522;19;20193;-78
2023/07/31 02:23:40;;;;;;;12.60;4.70;;;19.10;99.90;;;;;;7282162;19;20912;-78
2023/07/31 02:26:05;;;;;;;13.10;5.03;;;19.10;99.90;;;;;;7282166;19;20185;-77
2023/07/31 02:28:31;;;;;;;13.10;4.70;;;19.00;99.90;;;;;;7303120;19;20191;-79
2023/07/31 02:30:57;;;;;;;12.20;4.80;;;19.00;99.90;;;;;;7284136;19;20181;-78
2023/07/31 02:33:22;;;;;;;11.70;4.80;;;19.00;99.90;;;;;;7283051;19;20200;-78
2023/07/31 02:35:48;;;;;;;10.07;4.27;;;19.00;99.90;;;;;;7282546;19;20194;-78
2023/07/31 02:38:14;;;;;;;15.00;4.13;;;18.90;99.90;;;;;;7281806;19;20188;-78
2023/07/31 02:40:43;;;;;;;9.47;4.10;;;19.00;99.90;;;;;;7282450;19;20265;-78
2023/07/31 02:43:09;;;;;;;12.43;4.30;;;19.00;99.90;;;;;;7281815;19;20189;-78
2023/07/31 02:45:35;;;;;;;10.50;4.10;;;19.00;99.90;;;;;;7282254;19;20271;-77
2023/07/31 02:48:01;;;;;;;12.77;4.50;;;18.90;99.90;;;;;;7302505;19;20186;-78
2023/07/31 02:50:30;;;;;;;10.73;4.07;;;18.80;99.90;;;;;;7281162;19;20180;-78
2023/07/31 02:52:55;;;;;;;9.80;3.70;;;18.80;99.90;;;;;;7282844;19;20312;-78
2023/07/31 02:55:21;;;;;;;12.37;4.60;;;18.80;99.90;;;;;;7281214;19;20660;-78
2023/07/31 02:57:47;;;;;;;12.80;4.23;;;18.80;99.90;;;;;;7280224;19;20207;-78
2023/07/31 03:00:13;;;;;;;9.93;3.77;;;18.90;99.90;;;;;;7282128;19;20187;-78
2023/07/31 03:02:38;;;;;;;12.27;4.00;;;18.90;99.90;;;;;;7279097;19;20193;-78
2023/07/31 03:05:04;;;;;;;9.93;4.27;;;19.00;99.90;;;;;;7290783;19;20193;-77
2023/07/31 03:07:30;;;;;;;12.57;4.03;;;19.00;99.90;;;;;;7303779;19;20187;-78
2023/07/31 03:09:56;;;;;;;9.60;4.40;;;19.10;99.90;;;;;;7280292;19;20673;-78
2023/07/31 03:12:22;;;;;;;12.03;3.80;;;19.10;99.90;;;;;;7281586;19;20198;-78
2023/07/31 03:14:51;;;;;;;8.80;4.10;;;19.00;99.90;;;;;;7280534;19;20201;-78
2023/07/31 03:17:17;;;;;;;10.10;3.93;;;18.90;99.90;;;;;;7281022;19;20198;-78
2023/07/31 03:19:42;;;;;;;12.20;3.90;;;18.90;99.90;;;;;;7279452;19;20660;-78
2023/07/31 03:22:08;;;;;;;11.17;4.07;;;18.90;99.90;;;;;;7280551;19;20194;-78
2023/07/31 03:24:34;;;;;;;9.77;3.63;;;18.80;99.90;;;;;;7293797;19;20199;-77
2023/07/31 03:26:59;;;;;;;12.03;4.20;;;18.90;99.90;;;;;;7296015;19;20191;-78
2023/07/31 03:29:26;;;;;;;10.63;3.97;;;18.80;99.90;;;;;;7284522;19;20181;-78
2023/07/31 03:31:52;;;;;;;11.20;4.23;;;18.80;99.90;;;;;;7287907;19;20195;-79
2023/07/31 03:34:17;;;;;;;9.03;3.93;;;18.80;99.90;;;;;;7288806;19;20193;-77
2023/07/31 03:36:44;;;;;;;12.77;4.33;;;18.80;99.90;;;;;;7287542;19;20196;-78
2023/07/31 03:39:10;;;;;;;13.03;3.93;;;18.70;99.90;;;;;;7287070;19;20192;-78
2023/07/31 03:41:35;;;;;;;12.63;4.33;;;18.60;99.90;;;;;;7287045;19;20180;-78
2023/07/31 03:44:01;;;;;;;12.17;4.40;;;18.60;99.90;;;;;;7308263;19;20206;-78
2023/07/31 03:46:27;;;;;;;10.07;3.83;;;18.60;99.90;;;;;;7288192;19;20651;-78
2023/07/31 03:48:53;;;;;;;14.73;4.03;;;18.70;99.90;;;;;;7286192;19;20188;-78
2023/07/31 03:51:19;;;;;;;10.73;4.70;;;18.70;99.90;;;;;;7288207;19;20540;-78
2023/07/31 03:53:45;;;;;;;12.90;4.10;;;18.70;99.90;;;;;;7286811;19;20689;-78
2023/07/31 03:56:11;;;;;;;12.60;4.23;;;18.80;99.90;;;;;;7285972;19;20188;-78
2023/07/31 03:58:36;;;;;;;12.40;4.80;;;18.90;99.90;;;;;;7285861;19;20859;-78
2023/07/31 04:01:03;;;;;;;9.80;3.70;;;18.90;99.90;;;;;;7308232;19;20205;-78
2023/07/31 04:03:29;;;;;;;14.77;3.77;;;18.70;99.90;;;;;;7287427;19;20213;-78
2023/07/31 04:05:58;;;;;;;9.63;4.20;;;18.70;99.90;;;;;;7288886;19;20712;-78
2023/07/31 04:08:23;;;;;;;12.80;3.97;;;18.70;99.90;;;;;;7287041;19;20206;-78
2023/07/31 04:10:50;;;;;;;13.00;4.50;;;18.70;99.90;;;;;;7286363;19;20180;-78
2023/07/31 04:13:15;;;;;;;10.57;3.90;;;18.80;99.90;;;;;;7285425;19;20650;-79
2023/07/31 04:15:41;;;;;;;11.23;3.93;;;18.80;99.90;;;;;;7285560;19;20196;-78
2023/07/31 04:18:07;;;;;;;10.50;4.03;;;18.90;99.90;;;;;;7286251;19;20189;-78
2023/07/31 04:20:33;;;;;;;12.30;4.10;;;19.00;99.90;;;;;;7307279;19;20181;-78
2023/07/31 04:22:58;;;;;;;11.60;4.07;;;19.00;99.90;;;;;;7285634;19;20188;-78
2023/07/31 04:25:24;;;;;;;13.27;4.03;;;18.80;99.90;;;;;;7286262;19;20201;-78
2023/07/31 04:27:50;;;;;;;11.00;3.80;;;18.80;99.90;;;;;;7285413;19;20698;-78
2023/07/31 04:30:15;;;;;;;10.90;3.93;;;18.70;99.90;;;;;;7285180;19;20188;-78
2023/07/31 04:32:41;;;;;;;12.00;4.30;;;18.70;99.90;;;;;;7285000;19;20245;-78
2023/07/31 04:35:07;;;;;;;12.30;4.27;;;18.70;99.90;;;;;;7286377;19;20732;-78
2023/07/31 04:37:33;;;;;;;11.53;4.20;;;18.80;99.90;;;;;;7308256;19;20278;-79
2023/07/31 04:39:58;;;;;;;11.90;3.97;;;18.80;99.90;;;;;;7285141;19;20185;-79
2023/07/31 04:42:24;;;;;;;13.93;3.77;;;18.90;99.90;;;;;;7284378;19;20193;-78
2023/07/31 04:44:50;;;;;;;10.70;4.23;;;18.80;99.90;;;;;;7285790;19;20857;-78
2023/07/31 04:47:16;;;;;;;11.90;4.23;;;18.80;99.90;;;;;;7285639;19;20196;-78
2023/07/31 04:49:41;;;;;;;11.17;3.93;;;18.80;99.90;;;;;;7286124;19;20192;-78
2023/07/31 04:52:07;;;;;;;11.27;4.20;;;18.80;99.90;;;;;;7285300;19;20200;-78
2023/07/31 04:54:33;;;;;;;13.53;4.17;;;18.70;99.90;;;;;;7305136;19;20193;-79
2023/07/31 04:56:58;;;;;;;10.07;3.97;;;18.60;99.90;;;;;;7285483;19;20190;-79
2023/07/31 04:59:24;;;;;;;12.83;4.17;;;18.50;99.90;;;;;;7284442;19;20182;-78
2023/07/31 05:01:50;;;;;;;13.33;4.13;;;18.40;99.90;;;;;;7281542;19;20539;-78
2023/07/31 05:04:16;;;;;;;14.13;4.43;;;18.30;99.90;;;;;;7282458;19;20186;-78
2023/07/31 05:06:42;;;;;;;11.10;4.30;;;18.30;99.90;;;;;;7283834;19;20244;-78
2023/07/31 05:09:09;;;;;;;9.77;3.80;;;18.30;99.90;;;;;;7286406;19;20197;-77
2023/07/31 05:11:35;;;;;;;12.80;4.07;;;18.30;99.90;;;;;;7295790;19;20645;-78
2023/07/31 05:14:01;;;;;;;12.30;4.20;;;18.20;99.90;;;;;;7302834;19;20198;-79
2023/07/31 05:16:26;;;;;;;12.60;4.50;;;18.20;99.90;;;;;;7283821;19;20188;-78
2023/07/31 05:18:52;;;;;;;13.57;4.30;;;18.20;99.90;;;;;;7283783;19;20233;-78
2023/07/31 05:21:18;;;;;;;15.03;4.80;;;18.10;99.90;;;;;;7283141;19;20690;-78
2023/07/31 05:23:43;;;;;;;12.07;4.20;;;18.00;99.90;;;;;;7288270;19;20655;-78
2023/07/31 05:26:12;;;;;;;14.73;4.47;;;17.90;99.90;;;;;;7287048;19;20271;-77
2023/07/31 05:28:38;;;;;;;11.93;4.17;;;17.90;99.90;;;;;;7287242;19;20196;-78
2023/07/31 05:31:05;;;;;;;11.60;4.20;;;17.90;99.90;;;;;;7308920;19;20181;-79
2023/07/31 05:33:31;;;;;;;11.57;4.50;;;18.00;99.90;;;;;;7286462;19;20226;-78
2023/07/31 05:35:57;;;;;;;12.83;4.43;;;18.00;99.90;;;;;;7284091;19;20193;-78
2023/07/31 05:38:23;;;;;;;11.07;4.40;;;18.00;99.90;;;;;;7285695;19;20260;-78
2023/07/31 05:40:48;;;;;;;10.63;4.57;;;18.00;99.90;;;;;;7285240;19;20187;-78
2023/07/31 05:43:14;;;;;;;13.03;4.37;;;18.00;99.90;;;;;;7285701;19;20203;-78
2023/07/31 05:45:43;;;;;;;13.83;4.30;;;18.10;99.90;;;;;;7281881;19;20208;-77
2023/07/31 05:48:08;;;;;;;13.67;4.70;;;18.10;99.90;;;;;;7283520;19;20701;-77
2023/07/31 05:50:34;;;;;;;11.97;4.57;;;18.10;99.90;;;;;;7297016;19;20195;-76
2023/07/31 05:53:00;;;;;;;11.57;4.20;;;18.00;99.90;;;;;;7300778;19;20212;-77
2023/07/31 05:55:29;;;;;;;10.10;4.20;;;17.80;99.90;;;;;;7283203;19;20192;-77
2023/07/31 05:57:54;;;;;;;11.93;4.13;;;17.80;99.90;;;;;;7283054;19;20198;-77
2023/07/31 06:00:20;;;;;;;13.53;4.67;;;17.90;99.90;;;;;;7282488;19;20411;-77
2023/07/31 06:02:47;;;;;;;12.17;4.27;;;17.90;99.90;;;;;;7282238;19;20261;-76
2023/07/31 06:05:13;;;;;;;15.23;4.37;;;17.90;99.90;;;;;;7283384;19;20593;-76
2023/07/31 06:07:38;;;;;;;13.50;4.40;;;18.10;99.90;;;;;;7281219;19;20217;-76
2023/07/31 06:10:05;;;;;;;14.60;4.60;;;18.10;99.90;;;;;;7294762;19;20184;-76
2023/07/31 06:12:32;;;;;;;14.57;4.23;;;18.10;99.90;;;;;;7305960;19;20204;-76
2023/07/31 06:14:57;;;;;;;11.40;4.50;;;18.20;99.90;;;;;;7283557;19;20197;-76
2023/07/31 06:17:23;;;;;;;13.43;4.23;;;18.10;99.90;;;;;;7283308;19;20190;-76
2023/07/31 06:19:50;;;;;;;14.20;3.97;;;18.10;99.90;;;;;;7284569;19;20220;-76
2023/07/31 06:22:16;;;;;;;14.40;4.13;;;18.10;99.90;;;;;;7284149;19;20224;-76
2023/07/31 06:24:42;;;;;;;11.83;4.20;;;18.10;99.90;;;;;;7284552;19;20805;-76
2023/07/31 06:27:07;;;;;;;9.67;3.83;;;18.10;99.90;;;;;;7283406;19;20227;-77
2023/07/31 06:29:33;;;;;;;10.03;3.70;;;18.30;99.90;;;;;;7304429;19;20699;-77
2023/07/31 06:31:59;;;;;;;12.53;3.97;;;18.30;99.90;;;;;;7281807;19;20212;-77
2023/07/31 06:34:25;;;;;;;10.37;4.00;;;18.40;99.90;;;;;;7281118;19;20935;-76
2023/07/31 06:36:50;;;;;;;14.63;3.83;;;18.50;99.90;;;;;;7283461;19;20181;-76
2023/07/31 06:39:16;;;;;;;12.77;4.07;;;18.50;99.90;;;;;;7282019;19;20186;-76
2023/07/31 06:41:43;;;;;;;13.73;4.40;;;18.60;99.90;;;;;;7281320;19;20699;-77
2023/07/31 06:44:10;;;;;;;12.23;3.70;;;18.60;99.90;;;;;;7283924;19;20204;-77
2023/07/31 06:46:36;;;;;;;10.83;3.80;;;18.60;99.90;;;;;;7283379;19;20187;-76
2023/07/31 06:49:02;;;;;;;11.30;3.50;;;18.70;99.90;;;;;;7302570;19;20184;-77
2023/07/31 06:51:28;;;;;;;14.57;3.67;;;18.80;99.90;;;;;;7283010;19;20194;-78
2023/07/31 06:53:53;;;;;;;10.73;3.60;;;18.80;99.90;;;;;;7283909;19;20202;-77
2023/07/31 06:56:20;;;;;;;9.23;3.47;;;19.00;99.90;;;;;;7281809;19;20225;-78
2023/07/31 06:58:46;;;;;;;8.90;3.20;;;19.10;99.90;;;;;;7281729;19;20204;-77
2023/07/31 07:01:11;;;;;;;7.97;3.47;;;19.30;99.90;;;;;;7282899;19;20197;-80
2023/07/31 07:03:37;;;;;;;9.47;3.30;;;19.40;99.90;;;;;;7287053;19;20200;-78
2023/07/31 07:06:03;;;;;;;10.53;3.07;;;19.70;99.90;;;;;;7312934;19;20239;-79
2023/07/31 07:08:28;;;;;;;12.17;3.43;;;19.60;99.90;;;;;;7289788;19;20201;-79
2023/07/31 07:10:54;;;;;;;9.80;3.03;;;19.60;99.90;;;;;;7288665;19;20930;-78
2023/07/31 07:13:21;;;;;;;10.43;3.27;;;19.60;99.90;;;;;;7288804;19;20189;-78
2023/07/31 07:15:51;;;;;;;8.47;2.93;;;19.60;99.90;;;;;;7289752;19;20195;-78
2023/07/31 07:18:17;;;;;;;8.30;3.00;;;19.70;99.90;;;;;;7288608;19;20664;-78
2023/07/31 07:20:53;;;;;;;13.47;3.53;;;19.70;99.90;;;;;;7288389;19;20198;-78
2023/07/31 07:23:19;;;;;;;7.77;3.00;;;19.80;99.90;;;;;;7288586;19;20942;-78
2023/07/31 07:25:46;;;;;;;9.90;3.60;;;19.90;99.90;;;;;;7290116;19;20198;-78
2023/07/31 07:28:12;;;;;;;12.00;3.20;;;19.80;99.90;;;;;;7288549;19;20679;-78
2023/07/31 07:30:38;;;;;;;11.63;3.50;;;19.60;99.90;;;;;;7286958;19;20188;-78
2023/07/31 07:33:03;;;;;;;9.93;3.30;;;19.60;99.90;;;;;;7310456;19;20198;-78
2023/07/31 07:35:29;;;;;;;9.57;2.90;;;19.70;99.90;;;;;;7288691;19;20215;-78
2023/07/31 07:37:55;;;;;;;10.37;3.73;;;19.80;99.90;;;;;;7288473;19;20179;-79
2023/07/31 07:40:21;;;;;;;10.63;3.40;;;19.90;99.90;;;;;;7289458;19;20687;-79
2023/07/31 07:42:47;;;;;;;12.33;3.30;;;20.10;99.90;;;;;;7286693;19;20255;-79
2023/07/31 07:45:13;;;;;;;6.80;2.70;;;20.20;99.90;;;;;;7288681;19;20866;-79
2023/07/31 07:47:40;;;;;;;9.13;3.10;;;20.10;99.90;;;;;;7289248;19;20649;-79
2023/07/31 07:50:07;;;;;;;9.80;3.47;;;20.00;99.90;;;;;;7288821;19;20204;-80
2023/07/31 07:52:32;;;;;;;8.00;3.10;;;19.90;99.90;;;;;;7309711;19;20248;-80
2023/07/31 07:54:58;;;;;;;9.17;2.93;;;20.00;99.90;;;;;;7287057;19;20675;-80
2023/07/31 07:57:24;;;;;;;9.90;3.17;;;19.90;99.90;;;;;;7289136;19;20596;-79
2023/07/31 07:59:49;;;;;;;10.03;3.07;;;20.00;99.90;;;;;;7288256;19;20578;-79
2023/07/31 08:02:15;;;;;;;7.13;2.87;;;19.90;99.90;;;;;;7287079;19;20197;-79
2023/07/31 08:04:41;;;;;;;9.30;3.23;;;19.70;99.90;;;;;;7288096;19;20200;-79
2023/07/31 08:07:07;;;;;;;6.77;2.80;;;19.60;99.90;;;;;;7287673;19;20186;-79
2023/07/31 08:09:32;;;;;;;10.43;2.90;;;19.60;99.90;;;;;;7310688;19;20274;-79
2023/07/31 08:12:02;;;;;;;9.80;3.10;;;19.80;99.90;;;;;;7287774;19;20184;-79
2023/07/31 08:14:27;;;;;;;7.77;2.80;;;19.80;99.90;;;;;;7286309;19;20185;-79
2023/07/31 08:16:53;;;;;;;12.90;3.23;;;20.00;99.90;;;;;;7288399;19;20994;-79
2023/07/31 08:19:19;;;;;;;10.10;3.13;;;20.00;99.90;;;;;;7288583;19;20182;-79
2023/07/31 08:21:44;;;;;;;12.70;3.13;;;19.80;99.90;;;;;;7287697;19;20189;-80
2023/07/31 08:24:10;;;;;;;8.57;2.97;;;19.60;99.90;;;;;;7286204;19;20233;-80
2023/07/31 08:26:36;;;;;;;7.67;3.03;;;19.40;99.90;;;;;;7285880;19;20185;-80
2023/07/31 08:29:01;;;;;;;11.73;3.23;;;19.60;99.90;;;;;;7307996;19;20667;-80
2023/07/31 08:31:29;;;;;;;8.90;3.20;;;19.70;99.90;;;;;;7286864;19;20193;-80
2023/07/31 08:33:55;;;;;;;12.70;3.00;;;19.80;99.90;;;;;;7287133;19;20259;-80
2023/07/31 08:36:21;;;;;;;11.40;3.30;;;19.90;99.90;;;;;;7284422;19;20532;-80
2023/07/31 08:38:46;;;;;;;10.73;3.10;;;19.90;99.90;;;;;;7287335;19;20188;-81
2023/07/31 08:41:13;;;;;;;10.60;3.07;;;19.80;99.90;;;;;;7285538;19;20270;-80
2023/07/31 08:43:39;;;;;;;9.00;2.80;;;19.60;99.90;;;;;;7287436;19;20203;-80
2023/07/31 08:46:05;;;;;;;11.83;3.03;;;19.70;99.90;;;;;;7298937;19;20189;-80
2023/07/31 08:48:32;;;;;;;9.83;3.10;;;19.70;99.90;;;;;;7307336;19;20187;-81
2023/07/31 08:50:58;;;;;;;9.27;3.37;;;19.70;99.90;;;;;;7286835;19;20190;-81
2023/07/31 08:53:23;;;;;;;11.43;3.27;;;19.50;99.90;;;;;;7287801;19;20205;-81
2023/07/31 08:55:50;;;;;;;9.20;3.50;;;19.50;99.90;;;;;;7283981;19;20210;-81
2023/07/31 08:58:17;;;;;;;9.13;2.97;;;19.70;99.90;;;;;;7285836;19;20186;-80
2023/07/31 09:00:44;;;;;;;8.90;3.10;;;19.90;99.90;;;;;;7285650;19;20283;-80
2023/07/31 09:03:14;;;;;;;10.37;3.10;;;20.10;99.90;;;;;;7287205;19;20672;-80
2023/07/31 09:05:44;;;;;;;10.03;3.20;;;20.10;99.90;;;;;;7286021;19;20188;-80
2023/07/31 09:08:11;;;;;;;9.33;3.30;;;20.10;99.90;;;;;;7285455;19;20187;-79
2023/07/31 09:10:47;;;;;;;10.40;2.90;;;20.20;99.90;;;;;;7286151;19;20198;-80
2023/07/31 09:13:13;;;;;;;10.13;3.77;;;20.30;99.90;;;;;;7286849;19;20191;-80
2023/07/31 09:15:40;;;;;;;9.90;3.30;;;20.20;99.90;;;;;;7286610;19;20594;-80
2023/07/31 09:18:07;;;;;;;13.57;3.63;;;20.50;99.90;;;;;;7285449;19;20196;-80
2023/07/31 09:20:33;;;;;;;11.03;3.50;;;20.60;99.90;;;;;;7308997;19;20194;-80
2023/07/31 09:23:09;;;;;;;10.37;3.33;;;20.70;99.90;;;;;;7286698;19;20681;-80
2023/07/31 09:25:35;;;;;;;9.57;3.40;;;20.60;99.90;;;;;;7277793;19;20654;-79
2023/07/31 09:28:03;;;;;;;12.17;3.63;;;20.50;99.90;;;;;;7302631;19;20215;-80
2023/07/31 09:30:29;;;;;;;12.00;3.83;;;20.60;99.90;;;;;;7285003;19;20189;-80
2023/07/31 09:33:02;;;;;;;11.60;3.80;;;20.40;99.90;;;;;;7286370;19;20545;-82
2023/07/31 09:35:33;;;;;;;12.37;4.10;;;20.10;99.90;;;;;;7284535;19;20322;-81
2023/07/31 09:38:02;;;;;;;11.30;4.10;;;20.00;99.90;;;;;;7284517;19;20186;-81
2023/07/31 09:40:39;;;;;;;10.37;3.90;;;20.20;99.90;;;;;;7285553;19;20666;-81
2023/07/31 09:43:07;;;;;;;13.57;4.10;;;20.40;99.90;;;;;;7275678;19;20203;-79
2023/07/31 09:45:41;;;;;;;10.40;4.00;;;20.60;99.90;;;;;;7307803;19;20218;-81
2023/07/31 09:48:09;;;;;;;9.87;3.80;;;20.70;99.90;;;;;;7262908;19;20186;-79
2023/07/31 09:50:41;;;;;;;10.50;3.97;;;20.60;99.90;;;;;;7302575;19;20672;-79
2023/07/31 09:53:07;;;;;;;9.33;4.17;;;20.70;99.90;;;;;;7285258;19;20187;-80
2023/07/31 09:55:34;;;;;;;9.50;4.23;;;20.90;99.90;;;;;;7305350;19;20653;-81
2023/07/31 09:58:03;;;;;;;9.80;4.00;;;20.90;99.90;;;;;;7283660;19;20208;-81
2023/07/31 10:00:30;;;;;;;12.03;4.20;;;20.80;99.90;;;;;;7283483;19;20188;-81
2023/07/31 10:02:59;;;;;;;14.77;4.90;;;20.80;99.90;;;;;;7283209;19;21042;-81
2023/07/31 10:05:33;;;;;;;13.87;4.33;;;21.00;99.90;;;;;;7284200;19;20221;-80
2023/07/31 10:08:00;;;;;;;12.90;3.87;;;21.10;99.90;;;;;;7283275;19;20226;-81
2023/07/31 10:10:27;;;;;;;13.30;4.53;;;21.30;99.90;;;;;;7282324;19;20180;-81
2023/07/31 10:12:53;;;;;;;14.20;4.80;;;21.40;99.90;;;;;;7283899;19;20212;-80
2023/07/31 10:15:20;;;;;;;10.60;4.50;;;21.10;99.90;;;;;;7285272;19;20188;-80
2023/07/31 10:17:49;;;;;;;10.40;4.47;;;21.00;99.90;;;;;;7284578;19;20184;-82
2023/07/31 10:20:16;;;;;;;11.87;4.53;;;21.00;99.90;;;;;;7283789;19;20206;-80
2023/07/31 10:22:48;;;;;;;15.13;4.97;;;21.10;99.90;;;;;;7282767;19;20183;-80
2023/07/31 10:25:15;;;;;;;12.83;4.50;;;21.20;99.90;;;;;;7285013;19;20218;-80
2023/07/31 10:27:41;;;;;;;12.63;4.77;;;21.30;99.90;;;;;;7282953;19;20389;-80
2023/07/31 10:30:10;;;;;;;11.30;4.10;;;21.10;99.90;;;;;;7291998;19;20278;-79
2023/07/31 10:32:40;;;;;;;12.63;4.53;;;21.20;99.90;;;;;;7288340;19;20203;-79
2023/07/31 10:35:07;;;;;;;12.67;4.47;;;21.40;99.90;;;;;;7289705;19;20190;-80
2023/07/31 10:37:39;;;;;;;13.23;4.50;;;21.60;99.90;;;;;;7304035;19;20722;-80
2023/07/31 10:40:20;;;;;;;14.20;4.80;;;21.50;99.90;;;;;;7279797;19;20198;-79
2023/07/31 10:42:47;;;;;;;13.30;4.50;;;21.50;99.90;;;;;;7285276;19;20223;-81
2023/07/31 10:45:23;;;;;;;11.80;4.80;;;21.30;99.90;;;;;;7283772;19;20611;-80
2023/07/31 10:47:48;;;;;;;12.10;4.60;;;21.20;99.90;;;;;;7281960;19;20202;-80
2023/07/31 10:50:23;;;;;;;11.87;4.43;;;21.20;99.90;;;;;;7284395;19;20195;-80
2023/07/31 10:52:53;;;;;;;14.87;4.80;;;21.30;99.90;;;;;;7282866;19;20198;-80
2023/07/31 10:55:29;;;;;;;17.40;4.33;;;21.40;99.90;;;;;;7283101;19;20592;-80
2023/07/31 10:57:57;;;;;;;12.47;4.70;;;21.50;99.90;;;;;;7283517;19;20211;-80
2023/07/31 11:00:27;;;;;;;13.70;4.60;;;21.60;99.90;;;;;;7281654;19;20526;-80
2023/07/31 11:03:08;;;;;;;10.57;4.17;;;21.80;99.90;;;;;;7277754;19;21010;-80
2023/07/31 11:05:44;;;;;;;14.07;4.80;;;22.10;99.90;;;;;;7284369;19;20207;-80
2023/07/31 11:08:14;;;;;;;11.60;4.07;;;22.10;99.90;;;;;;7180678;19;2005018;-80
2023/07/31 11:10:40;;;;;;;13.10;4.37;;;22.10;99.90;;;;;;7281170;19;20204;-80
2023/07/31 11:13:06;;;;;;;13.37;4.43;;;22.00;99.90;;;;;;7287232;19;20185;-80
2023/07/31 11:15:31;;;;;;;15.30;4.43;;;22.10;99.90;;;;;;7303983;19;20191;-81
2023/07/31 11:18:00;;;;;;;12.00;4.07;;;21.90;99.90;;;;;;7283901;19;20204;-80
2023/07/31 11:20:25;;;;;;;13.13;4.43;;;21.60;99.90;;;;;;7280930;19;20598;-80
2023/07/31 11:22:52;;;;;;;11.37;4.10;;;21.50;99.90;;;;;;7278820;19;20589;-80
2023/07/31 11:25:18;;;;;;;10.27;4.10;;;21.50;99.90;;;;;;7282308;19;20210;-80
2023/07/31 11:27:43;;;;;;;13.77;4.60;;;21.70;99.90;;;;;;7280492;19;20310;-80
2023/07/31 11:30:10;;;;;;;11.93;4.20;;;22.00;99.90;;;;;;7281032;19;20202;-80
2023/07/31 11:32:37;;;;;;;13.33;4.40;;;22.20;99.90;;;;;;7283360;19;20256;-80
2023/07/31 11:35:04;;;;;;;13.43;4.50;;;22.20;99.90;;;;;;7304432;19;20603;-80
2023/07/31 11:37:40;;;;;;;13.93;4.47;;;22.10;99.90;;;;;;7281813;19;20180;-80
2023/07/31 11:40:07;;;;;;;13.17;4.40;;;22.00;99.90;;;;;;7259365;19;20192;-79
2023/07/31 11:42:33;;;;;;;12.27;3.80;;;21.90;99.90;;;;;;7300227;19;21141;-79
2023/07/31 11:45:02;;;;;;;12.40;4.40;;;21.60;99.90;;;;;;7279521;19;20215;-78
2023/07/31 11:47:30;;;;;;;11.97;4.00;;;21.50;99.90;;;;;;7278849;19;20187;-79
2023/07/31 11:49:56;;;;;;;11.47;4.00;;;21.60;99.90;;;;;;7282019;19;20176;-78
2023/07/31 11:52:23;;;;;;;14.73;4.30;;;21.70;99.90;;;;;;7284042;19;20667;-79
2023/07/31 11:54:49;;;;;;;11.07;3.93;;;21.90;99.90;;;;;;7283444;19;20215;-79
2023/07/31 11:57:16;;;;;;;11.73;4.07;;;21.90;99.90;;;;;;7284579;19;20204;-78
2023/07/31 11:59:42;;;;;;;13.10;4.27;;;22.00;99.90;;;;;;7287776;19;20189;-78
2023/07/31 12:02:08;;;;;;;11.93;4.20;;;22.20;99.90;;;;;;7286019;19;20185;-79
2023/07/31 12:04:35;;;;;;;12.60;4.13;;;22.50;99.90;;;;;;7310236;19;20319;-79
2023/07/31 12:07:01;;;;;;;14.13;4.43;;;22.70;99.90;;;;;;7289032;19;20222;-79
2023/07/31 12:09:26;;;;;;;12.87;4.47;;;22.90;99.90;;;;;;7285707;19;20272;-81
2023/07/31 12:11:52;;;;;;;9.67;4.10;;;23.00;99.90;;;;;;7287903;19;20206;-79
2023/07/31 12:14:24;;;;;;;10.67;4.10;;;22.80;99.90;;;;;;7287390;19;20279;-79
2023/07/31 12:17:00;;;;;;;11.47;4.30;;;22.70;99.90;;;;;;7286587;19;20660;-79
2023/07/31 12:19:29;;;;;;;13.07;4.73;;;22.80;99.90;;;;;;7287137;19;20184;-79
2023/07/31 12:21:59;;;;;;;15.50;4.30;;;22.90;99.90;;;;;;7287383;19;20193;-79
2023/07/31 12:24:29;;;;;;;10.37;3.90;;;22.90;99.90;;;;;;7288947;19;20181;-79
2023/07/31 12:26:55;;;;;;;12.63;4.30;;;23.00;99.90;;;;;;7287746;19;20214;-79
2023/07/31 12:29:20;;;;;;;13.63;4.57;;;22.80;99.90;;;;;;7286984;19;20200;-79
2023/07/31 12:31:46;;;;;;;14.30;4.80;;;22.60;99.90;;;;;;7287735;19;20193;-79
2023/07/31 12:34:17;;;;;;;11.87;3.93;;;22.50;99.90;;;;;;7286907;19;20192;-79
2023/07/31 12:36:43;;;;;;;13.33;4.30;;;22.50;99.90;;;;;;7286825;19;20588;-80